Time;durP1;ratioP1;P1;durP2;ratioP2;P2;SDS_P1;SDS_P2;PMS_P1;PMS_P2;Temp;Humidity;BMP_temperature;BMP_pressure;BME280_temperature;BME280_humidity;BME280_pressure;Samples;Min_cycle;Max_cycle;Signal;HPM_P1;HPM_P2
2022/01/25 00:24:30;;;;;;;;;;;8.40;92.40;;;;;;5030377;28;19912;-77
2022/01/25 00:32:10;;;;;;;;;;;8.50;92.40;;;;;;5028629;28;19909;-77
2022/01/25 00:34:36;;;;;;;;;;;8.50;92.30;;;;;;5029761;28;19905;-77
2022/01/25 00:37:02;;;;;;;;;;;8.50;92.30;;;;;;5028777;28;19924;-77
2022/01/25 00:39:27;;;;;;;;;;;8.50;92.30;;;;;;5029853;28;19912;-76
2022/01/25 00:41:53;;;;;;;;;;;8.40;92.20;;;;;;5012166;28;20414;-77
2022/01/25 00:44:19;;;;;;;;;;;8.50;92.20;;;;;;5029596;28;19905;-76
2022/01/25 00:46:44;;;;;;;;;;;8.50;92.20;;;;;;5029428;28;19948;-76
2022/01/25 00:49:14;;;;;;;;;;;8.50;92.10;;;;;;5011877;28;19909;-76
2022/01/25 00:54:27;;;;;;;;;;;8.50;92.10;;;;;;5028290;28;20283;-77
2022/01/25 00:56:52;;;;;;;;;;;8.60;92.20;;;;;;5027934;28;20007;-76
2022/01/25 00:59:20;;;;;;;;;;;8.60;92.10;;;;;;5029319;28;20004;-77
2022/01/25 01:01:47;;;;;;;;;;;8.60;92.10;;;;;;5029278;28;19951;-77
2022/01/25 01:04:12;;;;;;;;;;;8.60;92.10;;;;;;5027983;28;19940;-77
2022/01/25 01:06:41;;;;;;;;;;;8.60;92.10;;;;;;5029240;28;19948;-77
2022/01/25 01:09:10;;;;;;;;;;;8.60;92.10;;;;;;5028243;28;19948;-77
2022/01/25 01:11:38;;;;;;;;;;;8.50;92.30;;;;;;5028059;28;20244;-78
2022/01/25 01:35:44;;;;;;;;;;;8.40;92.60;;;;;;5027492;28;20063;-76
2022/01/25 01:38:25;;;;;;;;;;;8.40;92.60;;;;;;5028212;28;20290;-77
2022/01/25 01:43:36;;;;;;;;;;;8.40;92.60;;;;;;5028591;28;19959;-77
2022/01/25 01:48:49;;;;;;;;;;;8.40;92.50;;;;;;5028519;28;19963;-69
2022/01/25 01:51:19;;;;;;;;;;;8.40;92.70;;;;;;5028437;28;20279;-77
2022/01/25 01:53:45;;;;;;;;;;;8.30;92.80;;;;;;5028361;28;19909;-77
2022/01/25 01:56:11;;;;;;;;;;;8.30;92.70;;;;;;5027029;28;19916;-76
2022/01/25 01:58:38;;;;;;;;;;;8.30;92.80;;;;;;5026901;28;19909;-76
2022/01/25 02:01:05;;;;;;;;;;;8.30;92.60;;;;;;5027049;28;19909;-77
2022/01/25 02:03:31;;;;;;;;;;;8.30;92.60;;;;;;5028442;28;19912;-76
2022/01/25 02:05:56;;;;;;;;;;;8.30;92.60;;;;;;5028311;28;20351;-77
2022/01/25 02:08:22;;;;;;;;;;;8.30;92.70;;;;;;5010533;28;19909;-77
2022/01/25 02:10:48;;;;;;;;;;;8.30;92.50;;;;;;5028241;28;19913;-76
2022/01/25 02:13:13;;;;;;;;;;;8.30;92.50;;;;;;5026934;28;19913;-76
2022/01/25 02:15:43;;;;;;;;;;;8.30;92.50;;;;;;5028186;28;20002;-76
2022/01/25 02:23:37;;;;;;;;;;;8.30;92.40;;;;;;5027511;28;20276;-75
2022/01/25 02:26:04;;;;;;;;;;;8.40;92.40;;;;;;5028010;28;19909;-77
2022/01/25 02:28:32;;;;;;;;;;;8.40;92.40;;;;;;5026823;28;20248;-76
2022/01/25 02:30:58;;;;;;;;;;;8.30;92.40;;;;;;5027938;28;20313;-76
2022/01/25 02:33:24;;;;;;;;;;;8.40;92.40;;;;;;5028022;28;19999;-76
2022/01/25 02:35:49;;;;;;;;;;;8.40;92.40;;;;;;5027855;28;20356;-76
2022/01/25 02:38:19;;;;;;;;;;;8.30;92.50;;;;;;5028176;28;19912;-76
2022/01/25 02:40:45;;;;;;;;;;;8.30;92.60;;;;;;5026611;28;19923;-76
2022/01/25 02:43:12;;;;;;;;;;;8.30;92.60;;;;;;5027952;28;19905;-76
2022/01/25 02:45:38;;;;;;;;;;;8.20;92.60;;;;;;5026675;28;20002;-76
2022/01/25 02:50:48;;;;;;;;;;;8.30;92.60;;;;;;5028141;28;19922;-78
2022/01/25 02:53:14;;;;;;;;;;;8.30;92.50;;;;;;5028000;28;20279;-77
2022/01/25 02:55:40;;;;;;;;;;;8.20;92.50;;;;;;5010107;28;19919;-77
2022/01/25 02:58:05;;;;;;;;;;;8.20;92.60;;;;;;5027874;28;19916;-77
2022/01/25 03:00:31;;;;;;;;;;;8.20;92.60;;;;;;5026580;28;19944;-77
2022/01/25 03:02:57;;;;;;;;;;;8.20;92.60;;;;;;5027772;28;20037;-77
2022/01/25 03:05:23;;;;;;;;;;;8.20;92.70;;;;;;5027603;28;20402;-76
2022/01/25 03:07:48;;;;;;;;;;;8.20;92.70;;;;;;5027900;28;19905;-76
2022/01/25 03:10:14;;;;;;;;;;;8.30;92.70;;;;;;5027814;28;20359;-76
2022/01/25 03:12:48;;;;;;;;;;;8.30;92.60;;;;;;5026352;28;20270;-77
2022/01/25 03:17:48;;;;;;;;;;;8.30;92.60;;;;;;5026424;28;19963;-78
2022/01/25 03:20:48;;;;;;;;;;;8.30;92.90;;;;;;5030023;28;20370;-77
2022/01/25 03:23:05;;;;;;;;;;;8.30;92.70;;;;;;5029595;28;20410;-77
2022/01/25 03:25:31;;;;;;;;;;;8.40;92.60;;;;;;5031340;28;20252;-77
2022/01/25 03:27:57;;;;;;;;;;;8.40;92.60;;;;;;5029930;28;20031;-77
2022/01/25 03:30:24;;;;;;;;;;;8.40;92.60;;;;;;5031014;28;20005;-76
2022/01/25 03:32:49;;;;;;;;;;;8.40;92.60;;;;;;5030985;28;19909;-77
2022/01/25 03:35:15;;;;;;;;;;;8.50;92.60;;;;;;5029628;28;19909;-77
2022/01/25 03:37:40;;;;;;;;;;;8.40;92.60;;;;;;5029686;28;19923;-77
2022/01/25 03:40:07;;;;;;;;;;;8.50;92.60;;;;;;5030958;28;19905;-77
2022/01/25 03:42:36;;;;;;;;;;;8.50;92.60;;;;;;5029283;28;20313;-76
2022/01/25 03:45:02;;;;;;;;;;;8.50;92.60;;;;;;5030915;28;19912;-76
2022/01/25 03:47:42;;;;;;;;;;;8.50;92.60;;;;;;5030616;28;20264;-76
2022/01/25 03:50:08;;;;;;;;;;;8.50;92.60;;;;;;5029711;28;19914;-75
2022/01/25 03:52:36;;;;;;;;;;;8.50;92.60;;;;;;5030700;28;20335;-77
2022/01/25 03:55:02;;;;;;;;;;;8.40;92.60;;;;;;5030640;28;19923;-76
2022/01/25 03:57:27;;;;;;;;;;;8.40;92.60;;;;;;5029240;28;19911;-76
2022/01/25 03:59:54;;;;;;;;;;;8.30;92.70;;;;;;5029369;28;19913;-76
2022/01/25 04:02:19;;;;;;;;;;;8.30;92.80;;;;;;5029073;28;19905;-76
2022/01/25 04:04:46;;;;;;;;;;;8.40;92.70;;;;;;5029058;28;19916;-77
2022/01/25 04:07:14;;;;;;;;;;;8.40;92.70;;;;;;5029279;28;19909;-76
2022/01/25 04:09:39;;;;;;;;;;;8.40;92.70;;;;;;5029030;28;19913;-76
2022/01/25 04:12:06;;;;;;;;;;;8.40;92.70;;;;;;5030257;28;19967;-76
2022/01/25 04:14:32;;;;;;;;;;;8.40;92.70;;;;;;5029217;28;19913;-76
2022/01/25 04:17:07;;;;;;;;;;;8.40;92.70;;;;;;5030140;28;19962;-76
2022/01/25 04:19:46;;;;;;;;;;;8.40;92.70;;;;;;5029063;28;19905;-76
2022/01/25 04:27:25;;;;;;;;;;;8.50;92.60;;;;;;5030180;28;19916;-76
2022/01/25 04:29:51;;;;;;;;;;;8.60;92.50;;;;;;5029625;28;20298;-77
2022/01/25 04:32:18;;;;;;;;;;;8.60;92.50;;;;;;5027680;28;19909;-76
2022/01/25 04:34:57;;;;;;;;;;;8.60;92.40;;;;;;5029885;28;19909;-76
2022/01/25 04:51:23;;;;;;;;;;;8.40;92.50;;;;;;5028827;28;20237;-76
2022/01/25 04:54:00;;;;;;;;;;;8.40;92.50;;;;;;5029763;28;19909;-76
2022/01/25 04:56:34;;;;;;;;;;;8.50;92.50;;;;;;5029544;28;19922;-76
2022/01/25 04:59:09;;;;;;;;;;;8.50;92.40;;;;;;5029431;28;19905;-76
2022/01/25 05:01:39;;;;;;;;;;;8.50;92.40;;;;;;5027812;28;19905;-76
2022/01/25 05:04:13;;;;;;;;;;;8.50;92.40;;;;;;5028230;28;20422;-77
2022/01/25 05:06:41;;;;;;;;;;;8.50;92.40;;;;;;5028021;28;20378;-76
2022/01/25 05:09:10;;;;;;;;;;;8.50;92.40;;;;;;5029235;28;19905;-76
2022/01/25 05:11:38;;;;;;;;;;;8.50;92.40;;;;;;5011722;28;19976;-77
2022/01/25 05:16:36;;;;;;;;;;;8.50;92.40;;;;;;5029182;28;19909;-76
2022/01/25 05:24:19;;;;;;;;;;;8.60;92.50;;;;;;5029206;28;19911;-76
2022/01/25 05:26:44;;;;;;;;;;;8.50;92.50;;;;;;5028894;28;19905;-76
2022/01/25 05:29:10;;;;;;;;;;;8.50;92.60;;;;;;5027542;28;19940;-76
2022/01/25 05:31:36;;;;;;;;;;;8.50;92.60;;;;;;5027493;28;19924;-77
2022/01/25 05:34:02;;;;;;;;;;;8.50;92.60;;;;;;5028770;28;20436;-76
2022/01/25 05:36:27;;;;;;;;;;;8.50;92.90;;;;;;5027366;28;19960;-76
2022/01/25 05:38:56;;;;;;;;;;;8.40;92.70;;;;;;5028716;28;19915;-77
2022/01/25 05:41:26;;;;;;;;;;;8.50;92.70;;;;;;5027201;28;20003;-76
2022/01/25 05:44:22;;;;;;;;;;;8.50;92.70;;;;;;5028710;28;19943;-77
2022/01/25 05:46:45;;;;;;;;;;;8.50;92.70;;;;;;5026746;28;19932;-77
2022/01/25 05:49:11;;;;;;;;;;;8.50;92.70;;;;;;5027483;28;20267;-77
2022/01/25 05:51:37;;;;;;;;;;;8.60;92.80;;;;;;5027088;28;19909;-76
2022/01/25 05:54:02;;;;;;;;;;;8.60;92.60;;;;;;5027204;28;19909;-76
2022/01/25 05:56:28;;;;;;;;;;;8.60;92.60;;;;;;5027346;28;19909;-77
2022/01/25 05:58:53;;;;;;;;;;;8.60;92.60;;;;;;5027316;28;20297;-77
2022/01/25 06:01:19;;;;;;;;;;;8.60;92.60;;;;;;5027099;28;19952;-77
2022/01/25 06:03:45;;;;;;;;;;;8.60;92.60;;;;;;5028405;28;19911;-76
2022/01/25 06:06:11;;;;;;;;;;;8.60;92.60;;;;;;5027281;28;19916;-76
2022/01/25 06:08:37;;;;;;;;;;;8.60;92.60;;;;;;5028617;28;19933;-77
2022/01/25 06:11:02;;;;;;;;;;;8.60;92.70;;;;;;5028457;28;19909;-77
2022/01/25 06:13:31;;;;;;;;;;;8.60;92.70;;;;;;5028226;28;19923;-76
2022/01/25 06:15:57;;;;;;;;;;;8.50;92.60;;;;;;5010777;28;19913;-76
2022/01/25 06:18:23;;;;;;;;;;;8.50;92.70;;;;;;5028206;28;19908;-76
2022/01/25 06:20:49;;;;;;;;;;;8.50;92.80;;;;;;5028014;28;19912;-77
2022/01/25 06:23:14;;;;;;;;;;;8.50;92.80;;;;;;5028038;28;19905;-76
2022/01/25 06:25:41;;;;;;;;;;;8.50;92.80;;;;;;5026796;28;19905;-76
2022/01/25 06:28:07;;;;;;;;;;;8.50;92.80;;;;;;5026687;28;20043;-76
2022/01/25 06:30:32;;;;;;;;;;;8.40;92.80;;;;;;5026480;28;20004;-77
2022/01/25 06:32:59;;;;;;;;;;;8.40;92.80;;;;;;5027932;28;20025;-77
2022/01/25 06:35:28;;;;;;;;;;;8.50;92.70;;;;;;5010391;28;20379;-77
2022/01/25 06:37:54;;;;;;;;;;;8.50;92.70;;;;;;5026493;28;19967;-77
2022/01/25 06:40:19;;;;;;;;;;;8.50;92.70;;;;;;5027985;28;19905;-76
2022/01/25 06:42:45;;;;;;;;;;;8.50;92.70;;;;;;5027682;28;19916;-77
2022/01/25 06:45:17;;;;;;;;;;;8.50;92.70;;;;;;5027816;28;19911;-76
2022/01/25 06:47:43;;;;;;;;;;;8.40;92.70;;;;;;5027804;28;19924;-76
2022/01/25 06:50:10;;;;;;;;;;;8.40;92.80;;;;;;5027779;28;19909;-77
2022/01/25 06:52:37;;;;;;;;;;;8.40;92.80;;;;;;5026308;28;19905;-76
2022/01/25 06:55:06;;;;;;;;;;;8.50;92.80;;;;;;5029192;28;19913;-76
2022/01/25 06:57:32;;;;;;;;;;;8.50;92.80;;;;;;5031616;28;20061;-76
2022/01/25 06:59:57;;;;;;;;;;;8.50;92.70;;;;;;5031485;28;19909;-76
2022/01/25 07:02:23;;;;;;;;;;;8.50;92.70;;;;;;5030940;28;19999;-77
2022/01/25 07:04:48;;;;;;;;;;;8.50;92.70;;;;;;5029810;28;19963;-76
2022/01/25 07:07:14;;;;;;;;;;;8.50;92.80;;;;;;5013547;28;19923;-77
2022/01/25 07:09:40;;;;;;;;;;;8.50;92.70;;;;;;5031330;28;19920;-77
2022/01/25 07:12:06;;;;;;;;;;;8.60;92.70;;;;;;5031163;28;19909;-76
2022/01/25 07:14:31;;;;;;;;;;;8.50;92.70;;;;;;5029825;28;19948;-76
2022/01/25 07:16:57;;;;;;;;;;;8.50;92.80;;;;;;5029680;28;19920;-77
2022/01/25 07:19:24;;;;;;;;;;;8.50;92.80;;;;;;5031262;28;19909;-77
2022/01/25 07:21:49;;;;;;;;;;;8.40;92.90;;;;;;5029620;28;19987;-76
2022/01/25 07:24:15;;;;;;;;;;;8.40;92.90;;;;;;5029746;28;20375;-77
2022/01/25 07:26:41;;;;;;;;;;;8.40;92.80;;;;;;5030818;28;19909;-76
2022/01/25 07:29:06;;;;;;;;;;;8.50;92.80;;;;;;5029506;28;19905;-76
2022/01/25 07:31:32;;;;;;;;;;;8.50;92.70;;;;;;5031002;28;19940;-76
2022/01/25 07:33:57;;;;;;;;;;;8.50;92.70;;;;;;5033621;28;19999;-76
2022/01/25 07:36:23;;;;;;;;;;;8.50;92.70;;;;;;5029233;28;20391;-76
2022/01/25 07:38:48;;;;;;;;;;;8.40;92.70;;;;;;5029641;28;19913;-77
2022/01/25 07:41:14;;;;;;;;;;;8.40;92.70;;;;;;5029684;28;20251;-77
2022/01/25 07:43:40;;;;;;;;;;;8.50;92.80;;;;;;5030579;28;20287;-77
2022/01/25 07:46:05;;;;;;;;;;;8.40;92.70;;;;;;5012521;28;19924;-76
2022/01/25 07:48:31;;;;;;;;;;;8.40;92.80;;;;;;5028959;28;19928;-76
2022/01/25 07:50:57;;;;;;;;;;;8.40;92.80;;;;;;5029410;28;19932;-76
2022/01/25 07:53:22;;;;;;;;;;;8.40;92.80;;;;;;5028920;28;19912;-77
2022/01/25 07:55:48;;;;;;;;;;;8.30;92.90;;;;;;5028647;28;20035;-77
2022/01/25 07:58:14;;;;;;;;;;;8.30;92.80;;;;;;5028811;28;19963;-76
2022/01/25 08:00:39;;;;;;;;;;;8.30;92.80;;;;;;5028688;28;20279;-77
2022/01/25 08:03:05;;;;;;;;;;;8.30;92.90;;;;;;5028708;28;19916;-77
2022/01/25 08:05:30;;;;;;;;;;;8.30;93.10;;;;;;5030026;28;19909;-76
2022/01/25 08:07:58;;;;;;;;;;;8.40;92.90;;;;;;5028945;28;19920;-77
2022/01/25 08:10:23;;;;;;;;;;;8.30;92.90;;;;;;5030418;28;19909;-76
2022/01/25 08:12:49;;;;;;;;;;;8.30;92.90;;;;;;5029857;28;19920;-76
2022/01/25 08:15:15;;;;;;;;;;;8.40;92.90;;;;;;5028621;28;19935;-77
2022/01/25 08:17:41;;;;;;;;;;;8.40;92.90;;;;;;5012160;28;20256;-77
2022/01/25 08:20:07;;;;;;;;;;;8.40;92.80;;;;;;5029990;28;19912;-77
2022/01/25 08:22:35;;;;;;;;;;;8.40;92.80;;;;;;5030027;28;19927;-77
2022/01/25 08:25:02;;;;;;;;;;;8.40;92.80;;;;;;5028211;28;19952;-77
2022/01/25 08:27:28;;;;;;;;;;;8.40;92.80;;;;;;5028162;28;20359;-76
2022/01/25 08:29:54;;;;;;;;;;;8.40;92.80;;;;;;5029761;28;19913;-76
2022/01/25 08:32:20;;;;;;;;;;;8.30;92.90;;;;;;5027646;28;20347;-76
2022/01/25 08:34:46;;;;;;;;;;;8.30;92.90;;;;;;5029172;28;19916;-76
2022/01/25 08:37:12;;;;;;;;;;;8.30;92.80;;;;;;5028278;28;20279;-76
2022/01/25 08:39:38;;;;;;;;;;;8.40;92.80;;;;;;5028115;28;19905;-76
2022/01/25 08:42:04;;;;;;;;;;;8.30;92.80;;;;;;5027807;28;20000;-76
2022/01/25 08:44:30;;;;;;;;;;;8.40;92.80;;;;;;5029162;28;20244;-76
2022/01/25 08:46:55;;;;;;;;;;;8.40;92.70;;;;;;5028627;28;19971;-76
2022/01/25 08:49:21;;;;;;;;;;;8.30;92.70;;;;;;5029446;28;19913;-78
2022/01/25 08:51:48;;;;;;;;;;;8.30;92.80;;;;;;5027666;28;19909;-79
2022/01/25 08:54:14;;;;;;;;;;;8.30;92.90;;;;;;5026957;28;19999;-79
2022/01/25 08:56:41;;;;;;;;;;;8.30;92.90;;;;;;5027425;28;20384;-78
2022/01/25 08:59:07;;;;;;;;;;;8.30;92.90;;;;;;5028317;28;19911;-78
2022/01/25 09:01:33;;;;;;;;;;;8.30;93.00;;;;;;5027926;28;19975;-76
2022/01/25 09:04:00;;;;;;;;;;;8.30;93.00;;;;;;5028123;28;20306;-76
2022/01/25 09:06:26;;;;;;;;;;;8.30;93.00;;;;;;5028080;28;20086;-78
2022/01/25 09:08:57;;;;;;;;;;;8.40;93.00;;;;;;5028567;28;19986;-77
2022/01/25 09:11:23;;;;;;;;;;;8.40;92.90;;;;;;5028206;28;19958;-77
2022/01/25 09:13:48;;;;;;;;;;;8.40;92.90;;;;;;5011553;28;20037;-78
2022/01/25 09:16:14;;;;;;;;;;;8.50;92.90;;;;;;5028153;28;19913;-78
2022/01/25 09:18:40;;;;;;;;;;;8.50;92.80;;;;;;5028583;28;19909;-78
2022/01/25 09:21:06;;;;;;;;;;;8.50;92.80;;;;;;5030322;28;20038;-78
2022/01/25 09:23:32;;;;;;;;;;;8.50;92.80;;;;;;5028851;28;19912;-78
2022/01/25 09:25:57;;;;;;;;;;;8.50;92.90;;;;;;5028654;28;19924;-78
2022/01/25 09:28:23;;;;;;;;;;;8.50;92.90;;;;;;5029521;28;19909;-78
2022/01/25 09:30:48;;;;;;;;;;;8.50;92.90;;;;;;5029275;28;19945;-78
2022/01/25 09:33:14;;;;;;;;;;;8.60;93.00;;;;;;5029491;28;19916;-77
2022/01/25 09:35:40;;;;;;;;;;;8.60;93.00;;;;;;5027466;28;19909;-77
2022/01/25 09:38:06;;;;;;;;;;;8.60;93.00;;;;;;5029317;28;20003;-76
2022/01/25 09:40:32;;;;;;;;;;;8.60;93.00;;;;;;5028741;28;19909;-74
2022/01/25 09:42:58;;;;;;;;;;;8.70;93.00;;;;;;5028146;28;20278;-77
2022/01/25 09:45:24;;;;;;;;;;;8.70;93.00;;;;;;5027969;28;19909;-76
2022/01/25 09:47:53;;;;;;;;;;;8.70;93.00;;;;;;5028827;28;19920;-76
2022/01/25 09:50:19;;;;;;;;;;;8.70;93.00;;;;;;5028825;28;19915;-77
2022/01/25 09:52:45;;;;;;;;;;;8.70;92.90;;;;;;5027618;28;20004;-77
2022/01/25 09:55:15;;;;;;;;;;;8.70;92.90;;;;;;5029301;28;19935;-78
2022/01/25 09:57:41;;;;;;;;;;;8.70;93.00;;;;;;5029165;28;19909;-77
2022/01/25 10:00:08;;;;;;;;;;;8.70;93.00;;;;;;5029315;28;20008;-78
2022/01/25 10:02:41;;;;;;;;;;;8.70;93.00;;;;;;5027852;28;19905;-78
2022/01/25 10:05:30;;;;;;;;;;;8.70;93.00;;;;;;5027538;28;19912;-78
2022/01/25 10:07:57;;;;;;;;;;;8.70;93.00;;;;;;5028236;28;19906;-77
2022/01/25 10:10:24;;;;;;;;;;;8.80;93.00;;;;;;5027771;28;19909;-78
2022/01/25 10:12:50;;;;;;;;;;;8.90;93.10;;;;;;5027980;28;20314;-77
2022/01/25 10:15:15;;;;;;;;;;;8.90;93.10;;;;;;5011193;28;19916;-77
2022/01/25 10:17:43;;;;;;;;;;;8.90;93.10;;;;;;5028317;28;19916;-77
2022/01/25 10:20:44;;;;;;;;;;;9.00;93.00;;;;;;5029305;28;20422;-78
2022/01/25 10:23:10;;;;;;;;;;;9.00;93.00;;;;;;4968018;28;20008;-77
2022/01/25 10:25:38;;;;;;;;;;;9.10;93.00;;;;;;5016563;28;19988;-77
2022/01/25 10:28:10;;;;;;;;;;;9.10;93.00;;;;;;5028831;28;19909;-78
2022/01/25 10:30:38;;;;;;;;;;;9.10;93.00;;;;;;5032325;28;19909;-77
2022/01/25 10:33:15;;;;;;;;;;;9.10;93.00;;;;;;5031684;28;20062;-75
2022/01/25 10:35:41;;;;;;;;;;;9.20;93.00;;;;;;5031431;28;20012;-72
2022/01/25 10:38:16;;;;;;;;;;;9.20;92.90;;;;;;5033265;28;20528;-77
2022/01/25 10:40:42;;;;;;;;;;;9.20;92.80;;;;;;5033017;28;19952;-77
2022/01/25 10:43:12;;;;;;;;;;;9.20;92.80;;;;;;5015725;28;20059;-78
2022/01/25 10:45:38;;;;;;;;;;;9.20;92.90;;;;;;5032728;28;19960;-78
2022/01/25 10:48:03;;;;;;;;;;;9.10;92.90;;;;;;5031976;28;20434;-77
2022/01/25 10:50:34;;;;;;;;;;;9.10;93.00;;;;;;5032738;28;19913;-77
2022/01/25 10:53:06;;;;;;;;;;;9.10;93.10;;;;;;5033181;28;19905;-78
2022/01/25 10:55:39;;;;;;;;;;;9.20;93.20;;;;;;5034954;28;19913;-77
2022/01/25 10:58:05;;;;;;;;;;;9.30;93.20;;;;;;5031528;28;19905;-78
2022/01/25 11:00:33;;;;;;;;;;;9.40;93.10;;;;;;5014925;28;19909;-77
2022/01/25 11:02:59;;;;;;;;;;;9.40;93.10;;;;;;5032686;28;20003;-78
2022/01/25 11:05:25;;;;;;;;;;;9.50;93.10;;;;;;5031215;28;19986;-78
2022/01/25 11:07:51;;;;;;;;;;;9.60;93.10;;;;;;5032310;28;19925;-79
2022/01/25 11:10:19;;;;;;;;;;;9.60;93.00;;;;;;5032090;28;19905;-78
2022/01/25 11:13:01;;;;;;;;;;;9.60;93.10;;;;;;5032601;28;20276;-78
2022/01/25 11:15:27;;;;;;;;;;;9.70;93.10;;;;;;5026224;28;19967;-78
2022/01/25 11:17:52;;;;;;;;;;;9.70;93.00;;;;;;5030246;28;19948;-76
2022/01/25 11:20:18;;;;;;;;;;;9.80;93.10;;;;;;5031354;28;19959;-77
2022/01/25 11:22:44;;;;;;;;;;;9.80;93.00;;;;;;5031502;28;20347;-77
2022/01/25 11:25:10;;;;;;;;;;;9.80;93.10;;;;;;5031665;28;19913;-76
2022/01/25 11:27:37;;;;;;;;;;;9.80;93.10;;;;;;5031350;28;19917;-78
2022/01/25 11:30:08;;;;;;;;;;;9.90;93.10;;;;;;5031117;28;19909;-77
2022/01/25 11:32:44;;;;;;;;;;;10.00;93.00;;;;;;5032262;28;19909;-77
2022/01/25 11:35:12;;;;;;;;;;;10.00;92.90;;;;;;5030774;28;19916;-78
2022/01/25 11:37:42;;;;;;;;;;;10.00;92.90;;;;;;5032616;28;19909;-77
2022/01/25 11:40:29;;;;;;;;;;;10.10;92.90;;;;;;5030875;28;20262;-78
2022/01/25 11:42:57;;;;;;;;;;;10.10;92.80;;;;;;5030287;28;20252;-78
2022/01/25 11:45:23;;;;;;;;;;;10.10;92.80;;;;;;5031103;28;19911;-78
2022/01/25 11:47:50;;;;;;;;;;;10.10;92.80;;;;;;5031445;28;19917;-77
2022/01/25 11:50:16;;;;;;;;;;;10.20;92.80;;;;;;5029769;28;19905;-78
2022/01/25 11:52:49;;;;;;;;;;;10.20;92.90;;;;;;5030154;28;20360;-77
2022/01/25 11:55:20;;;;;;;;;;;10.20;92.90;;;;;;5030390;28;20236;-77
2022/01/25 11:57:52;;;;;;;;;;;10.20;92.90;;;;;;5030214;28;19909;-78
2022/01/25 12:00:20;;;;;;;;;;;10.30;92.80;;;;;;5031547;28;19909;-76
2022/01/25 12:02:49;;;;;;;;;;;10.30;92.80;;;;;;5031145;28;19909;-79
2022/01/25 12:05:18;;;;;;;;;;;10.30;92.80;;;;;;5030437;28;19975;-77
2022/01/25 12:08:02;;;;;;;;;;;10.40;92.80;;;;;;5030189;28;19909;-75
2022/01/25 12:10:42;;;;;;;;;;;10.30;92.70;;;;;;5030991;28;19911;-76
2022/01/25 12:13:20;;;;;;;;;;;10.40;92.90;;;;;;5013861;28;19920;-76
2022/01/25 12:16:06;;;;;;;;;;;10.40;92.70;;;;;;5011889;28;19916;-77
2022/01/25 12:19:01;;;;;;;;;;;10.40;92.60;;;;;;5029498;28;19919;-79
2022/01/25 12:21:54;;;;;;;;;;;10.40;92.80;;;;;;5013058;28;19905;-80
2022/01/25 12:24:32;;;;;;;;;;;10.30;92.50;;;;;;5031069;28;19905;-75
2022/01/25 12:27:48;;;;;;;;;;;10.30;92.50;;;;;;5028105;28;19916;-75
2022/01/25 12:30:04;;;;;;;;;;;10.30;92.50;;;;;;5024380;28;19916;-74
2022/01/25 12:32:33;;;;;;;;;;;10.30;92.30;;;;;;5028845;28;19909;-74
2022/01/25 12:35:08;;;;;;;;;;;10.30;92.20;;;;;;5030625;28;19914;-75
2022/01/25 12:37:42;;;;;;;;;;;10.20;92.20;;;;;;5030606;28;19991;-77
2022/01/25 12:40:24;;;;;;;;;;;10.20;92.20;;;;;;5029931;28;19912;-77
2022/01/25 12:42:50;;;;;;;;;;;10.20;92.30;;;;;;5031257;28;19952;-75
2022/01/25 12:45:20;;;;;;;;;;;10.20;92.20;;;;;;5031380;28;19905;-79
2022/01/25 12:47:52;;;;;;;;;;;10.30;92.20;;;;;;5030937;28;19921;-75
2022/01/25 12:50:18;;;;;;;;;;;10.30;92.20;;;;;;5026154;28;19911;-75
2022/01/25 12:52:45;;;;;;;;;;;10.30;92.00;;;;;;5029529;28;20559;-75
2022/01/25 12:55:11;;;;;;;;;;;10.30;91.90;;;;;;5029321;28;19939;-74
2022/01/25 12:57:36;;;;;;;;;;;10.20;91.80;;;;;;5030506;28;19904;-74
2022/01/25 13:00:03;;;;;;;;;;;10.20;91.90;;;;;;5028993;28;19905;-74
2022/01/25 13:02:29;;;;;;;;;;;10.20;91.90;;;;;;5030734;28;19909;-77
2022/01/25 13:04:55;;;;;;;;;;;10.20;91.90;;;;;;5028986;28;20435;-76
2022/01/25 13:07:20;;;;;;;;;;;10.20;91.90;;;;;;5012425;28;20004;-76
2022/01/25 13:09:48;;;;;;;;;;;10.20;91.90;;;;;;5030354;28;20299;-76
2022/01/25 13:12:26;;;;;;;;;;;10.30;91.90;;;;;;5028860;28;20430;-77
2022/01/25 13:15:04;;;;;;;;;;;10.30;91.90;;;;;;5029692;28;19909;-75
2022/01/25 13:17:31;;;;;;;;;;;10.30;91.90;;;;;;5030084;28;20047;-77
2022/01/25 13:20:01;;;;;;;;;;;10.30;91.90;;;;;;5029999;28;19944;-79
2022/01/25 13:22:32;;;;;;;;;;;10.30;91.90;;;;;;5030730;28;19959;-77
2022/01/25 13:27:46;;;;;;;;;;;10.30;91.80;;;;;;5019295;28;19924;-76
2022/01/25 13:32:56;;;;;;;;;;;10.30;91.90;;;;;;5020895;28;20425;-78
2022/01/25 13:38:04;;;;;;;;;;;10.30;92.00;;;;;;5031106;28;19905;-76
2022/01/25 13:40:37;;;;;;;;;;;10.30;92.10;;;;;;5029986;28;19909;-77
2022/01/25 13:43:32;;;;;;;;;;;10.40;92.10;;;;;;5032656;28;19967;-78
2022/01/25 13:45:59;;;;;;;;;;;10.40;92.10;;;;;;5030672;28;20095;-77
2022/01/25 13:48:27;;;;;;;;;;;10.50;92.00;;;;;;5030389;28;19905;-77
2022/01/25 13:51:13;;;;;;;;;;;10.50;91.90;;;;;;5031111;28;19915;-76
2022/01/25 13:53:39;;;;;;;;;;;10.50;92.00;;;;;;5029586;28;19952;-76
2022/01/25 13:56:11;;;;;;;;;;;10.50;92.00;;;;;;5031911;28;19913;-77
2022/01/25 13:58:41;;;;;;;;;;;10.50;91.90;;;;;;5029564;28;19908;-77
2022/01/25 14:01:09;;;;;;;;;;;10.50;92.00;;;;;;5030387;28;19909;-75
2022/01/25 14:03:39;;;;;;;;;;;10.40;92.00;;;;;;5028276;28;19909;-75
2022/01/25 14:06:24;;;;;;;;;;;10.40;92.00;;;;;;5030346;28;19963;-76
2022/01/25 14:08:54;;;;;;;;;;;10.50;92.00;;;;;;5030407;28;19912;-77
2022/01/25 14:11:33;;;;;;;;;;;10.50;92.10;;;;;;5030004;28;20787;-79
2022/01/25 14:25:26;;;;;;;;;;;10.50;91.90;;;;;;5030976;28;20335;-76
2022/01/25 14:27:53;;;;;;;;;;;10.60;92.00;;;;;;5028598;28;20260;-76
2022/01/25 14:30:19;;;;;;;;;;;10.70;92.00;;;;;;5029789;28;19905;-76
2022/01/25 14:32:55;;;;;;;;;;;10.70;92.10;;;;;;5029436;28;19913;-77
2022/01/25 14:35:22;;;;;;;;;;;10.80;92.10;;;;;;5029724;28;19920;-76
2022/01/25 14:37:48;;;;;;;;;;;10.80;92.00;;;;;;5011552;28;19920;-77
2022/01/25 14:40:15;;;;;;;;;;;10.90;92.00;;;;;;5029530;28;20043;-77
2022/01/25 14:42:43;;;;;;;;;;;10.90;91.90;;;;;;5028421;28;20138;-78
2022/01/25 14:45:14;;;;;;;;;;;10.90;91.90;;;;;;5028400;28;20258;-77
2022/01/25 14:47:45;;;;;;;;;;;10.80;91.90;;;;;;5028947;28;20348;-78
2022/01/25 14:50:19;;;;;;;;;;;10.90;92.00;;;;;;5012289;28;20375;-77
2022/01/25 14:53:12;;;;;;;;;;;10.80;92.00;;;;;;5029327;28;20415;-77
2022/01/25 14:55:39;;;;;;;;;;;10.80;92.00;;;;;;5028968;28;19908;-76
2022/01/25 15:00:44;;;;;;;;;;;10.90;91.90;;;;;;5028222;28;19908;-77
2022/01/25 15:03:09;;;;;;;;;;;10.80;91.70;;;;;;5029254;28;19931;-77
2022/01/25 15:05:35;;;;;;;;;;;10.80;91.70;;;;;;5027502;28;19991;-77
2022/01/25 15:08:00;;;;;;;;;;;10.70;91.70;;;;;;5027924;28;19909;-77
2022/01/25 15:10:31;;;;;;;;;;;10.70;91.70;;;;;;5029761;28;19915;-78
2022/01/25 15:12:56;;;;;;;;;;;10.70;91.70;;;;;;5028715;28;20373;-77
2022/01/25 15:15:45;;;;;;;;;;;10.70;91.80;;;;;;5030284;28;19925;-76
2022/01/25 15:18:10;;;;;;;;;;;10.70;91.80;;;;;;5032739;28;19963;-76
2022/01/25 15:20:36;;;;;;;;;;;10.70;91.80;;;;;;5031695;28;19944;-76
2022/01/25 15:23:03;;;;;;;;;;;10.70;91.80;;;;;;5031270;28;19913;-75
2022/01/25 15:25:28;;;;;;;;;;;10.60;91.80;;;;;;5031874;28;19971;-77
2022/01/25 15:27:55;;;;;;;;;;;10.60;92.00;;;;;;5031530;28;19940;-76
2022/01/25 15:30:21;;;;;;;;;;;10.60;91.80;;;;;;5032688;28;19905;-76
2022/01/25 15:32:47;;;;;;;;;;;10.60;91.80;;;;;;5030009;28;19909;-78
2022/01/25 15:35:13;;;;;;;;;;;10.60;91.90;;;;;;5030854;28;19962;-75
2022/01/25 15:37:40;;;;;;;;;;;10.50;91.80;;;;;;5032306;28;19912;-73
2022/01/25 15:40:05;;;;;;;;;;;10.50;91.80;;;;;;5014917;28;20011;-74
2022/01/25 15:42:33;;;;;;;;;;;10.50;91.80;;;;;;5032199;28;19986;-74
2022/01/25 15:45:08;;;;;;;;;;;10.50;91.80;;;;;;5031813;28;19984;-72
2022/01/25 15:47:34;;;;;;;;;;;10.50;91.80;;;;;;5029926;28;19928;-72
2022/01/25 15:49:59;;;;;;;;;;;10.40;91.70;;;;;;5030122;28;19913;-73
2022/01/25 15:52:25;;;;;;;;;;;10.30;91.70;;;;;;5031691;28;19919;-74
2022/01/25 15:54:50;;;;;;;;;;;10.20;91.70;;;;;;5031820;28;19909;-74
2022/01/25 15:57:16;;;;;;;;;;;10.10;91.70;;;;;;5031989;28;19913;-74
2022/01/25 15:59:42;;;;;;;;;;;10.00;91.70;;;;;;5031312;28;20305;-74
2022/01/25 16:02:12;;;;;;;;;;;10.00;91.70;;;;;;5031445;28;19959;-74
2022/01/25 16:04:41;;;;;;;;;;;9.90;91.70;;;;;;5029685;28;19913;-75
2022/01/25 16:07:10;;;;;;;;;;;9.80;91.80;;;;;;5031616;28;20409;-76
2022/01/25 16:09:38;;;;;;;;;;;9.70;91.80;;;;;;5032246;28;20366;-76
2022/01/25 16:12:05;;;;;;;;;;;9.60;91.80;;;;;;5031636;28;19905;-76
2022/01/25 16:14:30;;;;;;;;;;;9.50;91.80;;;;;;5030412;28;19909;-78
2022/01/25 16:16:56;;;;;;;;;;;9.40;92.00;;;;;;5030975;28;19916;-77
2022/01/25 16:19:22;;;;;;;;;;;9.30;91.80;;;;;;5031540;28;19908;-79
2022/01/25 16:21:47;;;;;;;;;;;9.30;91.90;;;;;;5031404;28;19912;-77
2022/01/25 16:24:13;;;;;;;;;;;9.20;91.80;;;;;;5029879;28;20433;-78
2022/01/25 16:26:39;;;;;;;;;;;9.20;91.90;;;;;;5031169;28;19905;-76
2022/01/25 16:29:04;;;;;;;;;;;9.10;91.90;;;;;;5031266;28;19995;-79
2022/01/25 16:31:32;;;;;;;;;;;9.10;91.90;;;;;;5029412;28;20278;-76